Terminal Aerodrome Forecast
Issued by NWS Quad Cities IA IL

Home | Current Version | Previous Version | Text Only | Print | Product List | Glossary On
Versions: 1 2 3 4 5 6 7 8 9 10 11 12 13 14 15 16 17
964
FTUS43 KDVN 132348
TAFMLI
TAF
KMLI 132348Z 1400/1424 11006KT P6SM OVC120
     FM140800 13011KT 4SM -SN BR OVC035
     FM141200 13015G22KT 1 1/2SM -SN BR OVC015
      TEMPO 1412/1416 3/4SM -SN BR
     FM142100 13013KT 4SM -SN BR OVC012=

USA.gov is the U.S. government's official web portal to all federal, state and local government web resources and services.